Kaaawa, HI (96730)

10:40 AM HST on August 30, 2015 (GMT -1000)
Lile Place | | Change Station
CLOSE
Current Station
Personal Weather Station
Location: Kaneohe, HI
Elevation: 341 ft
Nearby Weather Stations

Elev 341 ft 21.43 °N, 157.84 °W | Updated 6 minutes ago

Clear
Clear
86.7 °F
Feels Like 98 °F
N
2.2
Wind Variable Wind from WSW

Today
High -- | Low -- °F
--% Chance of Precip.
Yesterday
High -- | Low -- °F
Precip. -- in
6:14 AM 6:49 PM
Full, 98% visible
Pressure 29.88 in
Visibility -9999.0 miles
Clouds Clear
Heat Index 98 °F
Dew Point 77 °F
Humidity 72%
Rainfall 0.08 in
Snow Depth Not available.
UV 8 out of 12
Pollen Not available.
Air Quality Not available.
Flu Activity Not available.
METAR PHNG 301957Z AUTO 06010KT CLR 29/23 A2990 RMK AO2 SLP119 T02890233 $
Pressure 29.88 in
Visibility -9999.0 miles
Clouds Clear
Heat Index 98 °F
Dew Point 77 °F
Humidity 72%
Rainfall 0.08 in
Snow Depth Not available.
UV 8 out of 12
Pollen Not available.
Air Quality Not available.
Flu Activity Not available.
METAR PHNG 301957Z AUTO 06010KT CLR 29/23 A2990 RMK AO2 SLP119 T02890233 $
Hurricane Ignacio strengthened into a Category 4 hurricane Saturday and its current forecast track takes it just north of The Big Island Monday. While it is not a direct threat to make landfall in Hawaii, a track slightly to the south of its current forecast track could deteriorate weather conditions in the state. See the forecast track

10-Day Weather Forecast

×

Almanac

Astronomy

Aug. 30, 2015 Rise Set
Actual Time
Civil Twilight
Nautical Twilight
Astronomical Twilight
Moon
Length of Visible Light
Length of Day
Tomorrow will be .
, % of the Moon is Illuminated

Today's Extremes

State Highs State Lows

Community

WunderPhotos

Upload Photos

1,851,057 photos uploaded!

WunderBlogs® & News

Nearby

Air Quality

  Air Quality AQ Index Pollutant
Not available.

Snow Depth

Station Depth Elevation

Earthquake Activity

City Distance Mag. Time & Date
Minimum magnitude displayed is 2.5.

Coastal Water Temperatures

Place Temperature

Stations

Nearby Weather Stations

Station Location Temp. Windchill Dew Point Humidity Wind Precip. Elev Updated Type